createdAt,value
2022-12-14T00:01:48.709Z,-4.88
2022-12-14T00:04:37.025Z,-4.90
2022-12-14T00:07:26.535Z,-4.88
2022-12-14T00:10:14.722Z,-4.83
2022-12-14T00:13:03.269Z,-4.81
2022-12-14T00:15:51.331Z,-4.79
2022-12-14T00:18:39.568Z,-4.78
2022-12-14T00:21:28.257Z,-4.77
2022-12-14T00:24:17.843Z,-4.77
2022-12-14T00:27:05.492Z,-4.74
2022-12-14T00:29:53.151Z,-4.72
2022-12-14T00:32:42.098Z,-4.70
2022-12-14T00:35:30.181Z,-4.66
2022-12-14T00:38:18.169Z,-4.68
2022-12-14T00:41:08.356Z,-4.67
2022-12-14T00:43:56.644Z,-4.66
2022-12-14T00:46:44.499Z,-4.65
2022-12-14T00:49:32.634Z,-4.64
2022-12-14T00:52:20.734Z,-4.63
2022-12-14T00:55:09.475Z,-4.63
2022-12-14T00:57:59.025Z,-4.64
2022-12-14T01:00:47.520Z,-4.63
2022-12-14T01:03:35.902Z,-4.62
2022-12-14T01:06:24.810Z,-4.64
2022-12-14T01:09:12.809Z,-4.61
2022-12-14T01:12:00.724Z,-4.62
2022-12-14T01:14:50.525Z,-4.65
2022-12-14T01:17:38.581Z,-4.63
2022-12-14T01:20:26.755Z,-4.65
2022-12-14T01:23:15.679Z,-4.64
2022-12-14T01:26:03.396Z,-4.62
2022-12-14T01:28:56.268Z,-4.61
2022-12-14T01:31:48.550Z,-4.65
2022-12-14T01:34:36.734Z,-4.65
2022-12-14T01:37:24.881Z,-4.58
2022-12-14T01:40:13.355Z,-4.62
2022-12-14T01:43:01.392Z,-4.64
2022-12-14T01:45:49.517Z,-4.62
2022-12-14T01:48:39.069Z,-4.64
2022-12-14T01:51:30.164Z,-4.65
2022-12-14T01:54:18.408Z,-4.64
2022-12-14T01:57:06.666Z,-4.64
2022-12-14T02:00:00.935Z,-4.66
2022-12-14T02:02:56.212Z,-4.66
2022-12-14T02:05:49.744Z,-4.63
2022-12-14T02:08:39.591Z,-4.66
2022-12-14T02:11:47.785Z,-4.64
2022-12-14T02:14:36.163Z,-4.64
2022-12-14T02:17:24.195Z,-4.64
2022-12-14T02:20:14.084Z,-4.61
2022-12-14T02:23:37.149Z,-4.63
2022-12-14T02:26:55.172Z,-4.62
2022-12-14T02:30:00.645Z,-4.59
2022-12-14T02:33:12.876Z,-4.57
2022-12-14T02:36:07.875Z,-4.57
2022-12-14T02:39:05.202Z,-4.58
2022-12-14T02:42:03.464Z,-4.58
2022-12-14T02:44:59.984Z,-4.56
2022-12-14T02:47:55.308Z,-4.56
2022-12-14T02:50:50.495Z,-4.52
2022-12-14T02:53:43.956Z,-4.52
2022-12-14T02:56:37.840Z,-4.51
2022-12-14T02:59:26.668Z,-4.49
2022-12-14T03:02:16.655Z,-4.47
2022-12-14T03:05:05.065Z,-4.47
2022-12-14T03:07:56.786Z,-4.47
2022-12-14T03:10:49.749Z,-4.43
2022-12-14T03:13:42.972Z,-4.44
2022-12-14T03:16:33.857Z,-4.43
2022-12-14T03:19:27.589Z,-4.42
2022-12-14T03:22:21.722Z,-4.42
2022-12-14T03:25:20.519Z,-4.40
2022-12-14T03:28:14.693Z,-4.36
2022-12-14T03:31:08.051Z,-4.36
2022-12-14T03:33:58.083Z,-4.39
2022-12-14T03:36:51.467Z,-4.34
2022-12-14T03:39:42.498Z,-4.38
2022-12-14T03:42:38.885Z,-4.38
2022-12-14T03:45:35.733Z,-4.38
2022-12-14T03:48:31.798Z,-4.37
2022-12-14T03:51:27.298Z,-4.35
2022-12-14T03:54:21.877Z,-4.36
2022-12-14T03:57:16.338Z,-4.35
2022-12-14T04:00:09.115Z,-4.36
2022-12-14T04:03:03.557Z,-4.32
2022-12-14T04:05:59.344Z,-4.32
2022-12-14T04:08:54.036Z,-4.32
2022-12-14T04:12:06.123Z,-4.32
2022-12-14T04:15:30.390Z,-4.35
2022-12-14T04:18:40.668Z,-4.36
2022-12-14T04:21:38.559Z,-4.41
2022-12-14T04:24:50.370Z,-4.37
2022-12-14T04:27:45.403Z,-4.45
2022-12-14T04:30:39.158Z,-4.45
2022-12-14T04:33:47.897Z,-4.48
2022-12-14T04:36:42.103Z,-4.52
2022-12-14T04:39:37.355Z,-4.61
2022-12-14T04:42:30.007Z,-4.63
2022-12-14T04:45:24.824Z,-4.62
2022-12-14T04:48:24.222Z,-4.62
2022-12-14T04:51:17.333Z,-4.61
2022-12-14T04:54:12.202Z,-4.71
2022-12-14T04:57:12.195Z,-4.66
2022-12-14T05:00:05.780Z,-4.70
2022-12-14T05:03:26.245Z,-4.71
2022-12-14T05:06:25.876Z,-4.72
2022-12-14T05:09:23.666Z,-4.73
2022-12-14T05:12:21.199Z,-4.70
2022-12-14T05:15:14.375Z,-4.71
2022-12-14T05:18:06.058Z,-4.74
2022-12-14T05:20:56.512Z,-4.77
2022-12-14T05:23:44.324Z,-4.77
2022-12-14T05:26:33.929Z,-4.78
2022-12-14T05:29:22.074Z,-4.75
2022-12-14T05:32:12.266Z,-4.75
2022-12-14T05:35:01.731Z,-4.79
2022-12-14T05:37:49.885Z,-4.75
2022-12-14T05:40:37.861Z,-4.75
2022-12-14T05:43:26.417Z,-4.71
2022-12-14T05:46:16.520Z,-4.72
2022-12-14T05:49:04.659Z,-4.73
2022-12-14T05:51:53.732Z,-4.72
2022-12-14T05:54:41.419Z,-4.74
2022-12-14T05:57:29.403Z,-4.68
2022-12-14T06:00:21.749Z,-4.69
2022-12-14T06:03:09.796Z,-4.70
2022-12-14T06:06:03.143Z,-4.65
2022-12-14T06:08:53.232Z,-4.62
2022-12-14T06:11:42.816Z,-4.63
2022-12-14T06:14:30.932Z,-4.62
2022-12-14T06:17:18.699Z,-4.58
2022-12-14T06:20:07.774Z,-4.56
2022-12-14T06:22:56.339Z,-4.56
2022-12-14T06:25:45.744Z,-4.52
2022-12-14T06:28:33.519Z,-4.52
2022-12-14T06:31:23.099Z,-4.51
2022-12-14T06:34:12.219Z,-4.48
2022-12-14T06:37:00.526Z,-4.45
2022-12-14T06:39:54.463Z,-4.42
2022-12-14T06:42:44.459Z,-4.40
2022-12-14T06:45:32.736Z,-4.37
2022-12-14T06:48:20.647Z,-4.35
2022-12-14T06:51:09.238Z,-4.33
2022-12-14T06:53:59.029Z,-4.32
2022-12-14T06:56:48.346Z,-4.29
2022-12-14T06:59:37.744Z,-4.28
2022-12-14T07:02:25.856Z,-4.25
2022-12-14T07:05:14.278Z,-4.24
2022-12-14T07:08:02.303Z,-4.22
2022-12-14T07:10:55.285Z,-4.19
2022-12-14T07:13:48.804Z,-4.16
2022-12-14T07:16:38.705Z,-4.14
2022-12-14T07:19:27.934Z,-4.12
2022-12-14T07:22:16.376Z,-4.08
2022-12-14T07:25:04.357Z,-4.08
2022-12-14T07:27:53.485Z,-4.06
2022-12-14T07:30:41.654Z,-4.04
2022-12-14T07:33:31.440Z,-4.02
2022-12-14T07:36:21.089Z,-3.99
2022-12-14T07:39:11.278Z,-3.96
2022-12-14T07:41:59.454Z,-3.94
2022-12-14T07:44:47.544Z,-3.91
2022-12-14T07:47:35.608Z,-3.87
2022-12-14T07:50:25.118Z,-3.86
2022-12-14T07:53:13.258Z,-3.84
2022-12-14T07:56:04.716Z,-3.80
2022-12-14T07:58:52.889Z,-3.76
2022-12-14T08:01:42.742Z,-3.72
2022-12-14T08:04:31.028Z,-3.70
2022-12-14T08:07:20.399Z,-3.68
2022-12-14T08:10:09.244Z,-3.64
2022-12-14T08:12:57.265Z,-3.61
2022-12-14T08:15:45.412Z,-3.58
2022-12-14T08:18:34.190Z,-3.53
2022-12-14T08:21:23.214Z,-3.52
2022-12-14T08:24:14.992Z,-3.49
2022-12-14T08:27:02.977Z,-3.44
2022-12-14T08:30:00.017Z,-3.41
2022-12-14T08:32:48.164Z,-3.38
2022-12-14T08:35:37.378Z,-3.34
2022-12-14T08:38:25.013Z,-3.30
2022-12-14T08:41:15.529Z,-3.27
2022-12-14T08:44:04.725Z,-3.21
2022-12-14T08:46:52.579Z,-3.18
2022-12-14T08:49:40.555Z,-3.14
2022-12-14T08:52:28.818Z,-3.08
2022-12-14T08:55:21.143Z,-3.02
2022-12-14T08:58:14.936Z,-2.93
2022-12-14T09:01:04.578Z,-2.90
2022-12-14T09:03:52.956Z,-2.83
2022-12-14T09:06:41.389Z,-2.77
2022-12-14T09:09:29.055Z,-2.74
2022-12-14T09:12:17.176Z,-2.72
2022-12-14T09:15:07.889Z,-2.70
2022-12-14T09:17:56.385Z,-2.67
2022-12-14T09:20:45.545Z,-2.68
2022-12-14T09:23:38.208Z,-2.63
2022-12-14T09:26:26.445Z,-2.59
2022-12-14T09:29:16.072Z,-2.57
2022-12-14T09:32:05.936Z,-2.55
2022-12-14T09:34:54.038Z,-2.50
2022-12-14T09:37:42.009Z,-2.58
2022-12-14T09:40:32.474Z,-2.50
2022-12-14T09:43:36.882Z,-2.42
2022-12-14T09:46:36.609Z,-2.46
2022-12-14T09:49:31.449Z,-2.45
2022-12-14T09:52:24.803Z,-2.43
2022-12-14T09:55:18.379Z,-2.35
2022-12-14T09:58:07.736Z,-2.45
2022-12-14T10:01:04.206Z,-2.52
2022-12-14T10:04:03.019Z,-2.59
2022-12-14T10:07:00.834Z,-2.55
2022-12-14T10:09:55.745Z,-2.65
2022-12-14T10:12:58.605Z,-2.63
2022-12-14T10:15:58.222Z,-2.56
2022-12-14T10:19:02.882Z,-2.60
2022-12-14T10:21:55.732Z,-2.58
2022-12-14T10:24:48.361Z,-2.50
2022-12-14T10:27:54.184Z,-2.48
2022-12-14T10:30:45.747Z,-2.64
2022-12-14T10:33:34.262Z,-2.64
2022-12-14T10:36:28.940Z,-2.52
2022-12-14T10:39:27.557Z,-2.41
2022-12-14T10:42:24.112Z,-2.41
2022-12-14T10:45:42.359Z,-2.36
2022-12-14T10:48:41.981Z,-2.32
2022-12-14T10:51:38.369Z,-2.31
2022-12-14T10:54:33.824Z,-2.26
2022-12-14T10:57:25.050Z,-2.31
2022-12-14T11:00:25.444Z,-2.29
2022-12-14T11:03:16.717Z,-2.13
2022-12-14T11:06:13.580Z,-2.19
2022-12-14T11:09:01.429Z,-2.10
2022-12-14T11:11:56.077Z,-1.98
2022-12-14T11:15:00.003Z,-1.88
2022-12-14T11:18:05.430Z,-1.77
2022-12-14T11:20:54.869Z,-1.71
2022-12-14T11:23:45.197Z,-1.67
2022-12-14T11:26:40.119Z,-1.76
2022-12-14T11:29:41.169Z,-1.76
2022-12-14T11:32:30.894Z,-1.75
2022-12-14T11:35:21.242Z,-1.68
2022-12-14T11:38:17.510Z,-1.69
2022-12-14T11:41:11.419Z,-1.63
2022-12-14T11:44:06.008Z,-1.51
2022-12-14T11:47:06.718Z,-1.38
2022-12-14T11:49:56.782Z,-1.36
2022-12-14T11:52:44.959Z,-1.35
2022-12-14T11:55:34.685Z,-1.30
2022-12-14T11:58:26.586Z,-1.24
2022-12-14T12:01:17.314Z,-1.18
2022-12-14T12:04:13.457Z,-1.10
2022-12-14T12:07:12.393Z,-1.04
2022-12-14T12:10:09.421Z,-1.01
2022-12-14T12:13:02.176Z,-1.05
2022-12-14T12:16:16.128Z,-1.00
2022-12-14T12:19:12.379Z,-1.05
2022-12-14T12:22:02.903Z,-1.03
2022-12-14T12:28:18.064Z,-1.05
2022-12-14T12:31:12.687Z,-1.04
2022-12-14T12:34:03.929Z,-1.08
2022-12-14T12:37:24.818Z,-0.98
2022-12-14T12:40:11.543Z,-0.94
2022-12-14T12:43:04.733Z,-0.89
2022-12-14T12:45:57.645Z,-0.86
2022-12-14T12:48:50.760Z,-0.90
2022-12-14T12:51:46.872Z,-0.85
2022-12-14T12:54:41.161Z,-0.87
2022-12-14T12:57:35.861Z,-0.91
2022-12-14T13:00:26.367Z,-0.80
2022-12-14T13:03:23.722Z,-0.75
2022-12-14T13:06:29.798Z,-0.75
2022-12-14T13:09:26.803Z,-0.71
2022-12-14T13:12:25.947Z,-0.65
2022-12-14T13:15:31.015Z,-0.65
2022-12-14T13:18:49.144Z,-0.61
2022-12-14T13:21:35.759Z,-0.60
2022-12-14T13:24:24.755Z,-0.60
2022-12-14T13:27:50.110Z,-0.60
2022-12-14T13:30:49.749Z,-0.63
2022-12-14T13:33:51.100Z,-0.58
2022-12-14T13:37:01.313Z,-0.56
2022-12-14T13:40:20.107Z,-0.59
2022-12-14T13:43:25.077Z,-0.59
2022-12-14T13:46:20.081Z,-0.59
2022-12-14T13:49:19.252Z,-0.57
2022-12-14T13:52:07.763Z,-0.60
2022-12-14T13:54:56.223Z,-0.62
2022-12-14T13:57:44.049Z,-0.62
2022-12-14T14:01:02.349Z,-0.67
2022-12-14T14:03:53.116Z,-0.69
2022-12-14T14:06:42.725Z,-0.68
2022-12-14T14:09:59.769Z,-0.76
2022-12-14T14:12:47.850Z,-0.76
2022-12-14T14:19:06.036Z,-0.77
2022-12-14T14:22:22.893Z,-0.77
2022-12-14T14:25:38.735Z,-0.79
2022-12-14T14:28:31.373Z,-0.81
2022-12-14T14:31:19.975Z,-0.83
2022-12-14T14:34:21.921Z,-0.84
2022-12-14T14:37:31.657Z,-0.83
2022-12-14T14:40:58.346Z,-0.85
2022-12-14T14:43:40.358Z,-0.87
2022-12-14T14:46:38.110Z,-0.91
2022-12-14T14:49:32.496Z,-0.93
2022-12-14T14:52:46.757Z,-0.97
2022-12-14T14:56:03.611Z,-0.96
2022-12-14T14:58:51.575Z,-1.01
2022-12-14T15:02:00.737Z,-1.04
2022-12-14T15:04:57.061Z,-1.05
2022-12-14T15:07:45.256Z,-1.04
2022-12-14T15:10:38.372Z,-1.07
2022-12-14T15:13:27.481Z,-1.08
2022-12-14T15:16:24.571Z,-1.12
2022-12-14T15:19:38.571Z,-1.15
2022-12-14T15:22:30.913Z,-1.19
2022-12-14T15:25:24.601Z,-1.20
2022-12-14T15:28:23.913Z,-1.24
2022-12-14T15:31:11.851Z,-1.28
2022-12-14T15:34:01.325Z,-1.41
2022-12-14T15:36:50.632Z,-1.36
2022-12-14T15:39:43.635Z,-1.39
2022-12-14T15:42:31.403Z,-1.35
2022-12-14T15:45:23.347Z,-1.38
2022-12-14T15:48:15.402Z,-1.37
2022-12-14T15:51:05.587Z,-1.38
2022-12-14T15:53:56.239Z,-1.38
2022-12-14T15:56:47.690Z,-1.39
2022-12-14T15:59:37.793Z,-1.38
2022-12-14T16:02:30.308Z,-1.38
2022-12-14T16:05:21.566Z,-1.39
2022-12-14T16:08:11.700Z,-1.39
2022-12-14T16:11:02.468Z,-1.41
2022-12-14T16:13:52.126Z,-1.41
2022-12-14T16:16:40.198Z,-1.43
2022-12-14T16:19:45.051Z,-1.45
2022-12-14T16:22:41.978Z,-1.46
2022-12-14T16:25:31.663Z,-1.48
2022-12-14T16:28:27.336Z,-1.50
2022-12-14T16:31:21.249Z,-1.50
2022-12-14T16:34:14.249Z,-1.53
2022-12-14T16:40:26.036Z,-1.56
2022-12-14T16:43:33.742Z,-1.57
2022-12-14T16:46:23.728Z,-1.57
2022-12-14T16:49:32.585Z,-1.57
2022-12-14T16:52:24.007Z,-1.58
2022-12-14T16:55:14.945Z,-1.60
2022-12-14T16:58:03.784Z,-1.61
2022-12-14T17:00:59.899Z,-1.63
2022-12-14T17:04:01.307Z,-1.61
2022-12-14T17:06:52.041Z,-1.63
2022-12-14T17:09:40.198Z,-1.62
2022-12-14T17:12:28.512Z,-1.61
2022-12-14T17:15:17.764Z,-1.64
2022-12-14T17:18:08.243Z,-1.62
2022-12-14T17:20:57.904Z,-1.61
2022-12-14T17:23:46.922Z,-1.62
2022-12-14T17:26:34.910Z,-1.63
2022-12-14T17:29:25.650Z,-1.63
2022-12-14T17:32:16.252Z,-1.64
2022-12-14T17:35:05.821Z,-1.65
2022-12-14T17:37:55.381Z,-1.67
2022-12-14T17:40:44.677Z,-1.68
2022-12-14T17:43:33.147Z,-1.69
2022-12-14T17:46:22.203Z,-1.70
2022-12-14T17:49:13.232Z,-1.71
2022-12-14T17:52:01.699Z,-1.72
2022-12-14T17:54:51.013Z,-1.73
2022-12-14T17:57:39.086Z,-1.75
2022-12-14T18:00:46.228Z,-1.76
2022-12-14T18:03:37.116Z,-1.76
2022-12-14T18:06:25.034Z,-1.77
2022-12-14T18:09:13.099Z,-1.78
2022-12-14T18:12:24.307Z,-1.79
2022-12-14T18:15:17.124Z,-1.79
2022-12-14T18:18:05.602Z,-1.81
2022-12-14T18:20:55.350Z,-1.82
2022-12-14T18:23:47.672Z,-1.82
2022-12-14T18:26:37.976Z,-1.82
2022-12-14T18:29:27.464Z,-1.84
2022-12-14T18:32:15.653Z,-1.85
2022-12-14T18:35:03.614Z,-1.85
2022-12-14T18:37:52.679Z,-1.86
2022-12-14T18:40:43.851Z,-1.87
2022-12-14T18:43:43.428Z,-1.88
2022-12-14T18:46:33.307Z,-1.87
2022-12-14T18:49:21.437Z,-1.89
2022-12-14T18:52:10.867Z,-1.90
2022-12-14T18:55:01.637Z,-1.89
2022-12-14T18:57:52.404Z,-1.90
2022-12-14T19:00:40.953Z,-1.91
2022-12-14T19:03:33.369Z,-1.91
2022-12-14T19:09:31.973Z,-1.91
2022-12-14T19:12:19.649Z,-1.94
2022-12-14T19:15:09.175Z,-1.94
2022-12-14T19:17:59.105Z,-1.94
2022-12-14T19:20:49.451Z,-1.96
2022-12-14T19:23:37.776Z,-1.99
2022-12-14T19:26:30.987Z,-2.00
2022-12-14T19:29:18.698Z,-2.01
2022-12-14T19:32:06.980Z,-2.02
2022-12-14T19:34:55.233Z,-2.04
2022-12-14T19:37:44.650Z,-2.07
2022-12-14T19:40:32.631Z,-2.08
2022-12-14T19:43:20.933Z,-2.11
2022-12-14T19:46:10.047Z,-2.15
2022-12-14T19:48:59.865Z,-2.16
2022-12-14T19:51:52.722Z,-2.21
2022-12-14T19:54:46.220Z,-2.22
2022-12-14T19:57:33.913Z,-2.27
2022-12-14T20:00:22.072Z,-2.29
2022-12-14T20:03:10.232Z,-2.31
2022-12-14T20:06:00.152Z,-2.33
2022-12-14T20:08:50.140Z,-2.37
2022-12-14T20:11:39.221Z,-2.39
2022-12-14T20:14:27.198Z,-2.43
2022-12-14T20:17:15.204Z,-2.46
2022-12-14T20:20:03.406Z,-2.49
2022-12-14T20:22:51.486Z,-2.50
2022-12-14T20:25:39.328Z,-2.52
2022-12-14T20:28:28.867Z,-2.55
2022-12-14T20:31:17.520Z,-2.58
2022-12-14T20:34:06.976Z,-2.59
2022-12-14T20:36:59.298Z,-2.59
2022-12-14T20:39:47.170Z,-2.60
2022-12-14T20:42:37.688Z,-2.63
2022-12-14T20:45:27.342Z,-2.64
2022-12-14T20:48:15.765Z,-2.65
2022-12-14T20:51:04.781Z,-2.67
2022-12-14T20:53:52.908Z,-2.66
2022-12-14T20:56:42.032Z,-2.68
2022-12-14T20:59:30.093Z,-2.68
2022-12-14T21:02:23.101Z,-2.70
2022-12-14T21:05:11.010Z,-2.72
2022-12-14T21:07:58.785Z,-2.72
2022-12-14T21:10:46.997Z,-2.74
2022-12-14T21:13:35.368Z,-2.77
2022-12-14T21:16:23.446Z,-2.77
2022-12-14T21:19:15.819Z,-2.77
2022-12-14T21:22:03.766Z,-2.74
2022-12-14T21:25:07.818Z,-2.74
2022-12-14T21:27:56.112Z,-2.71
2022-12-14T21:30:44.277Z,-2.71
2022-12-14T21:33:32.991Z,-2.74
2022-12-14T21:36:22.571Z,-2.75
2022-12-14T21:39:13.096Z,-2.77
2022-12-14T21:42:15.406Z,-2.78
2022-12-14T21:45:05.193Z,-2.77
2022-12-14T21:47:53.327Z,-2.78
2022-12-14T21:50:43.781Z,-2.77
2022-12-14T21:53:35.467Z,-2.80
2022-12-14T21:56:46.149Z,-2.81
2022-12-14T21:59:36.054Z,-2.82
2022-12-14T22:02:25.816Z,-2.82
2022-12-14T22:05:13.729Z,-2.81
2022-12-14T22:08:03.600Z,-2.82
2022-12-14T22:10:53.050Z,-2.82
2022-12-14T22:13:41.964Z,-2.79
2022-12-14T22:16:31.140Z,-2.77
2022-12-14T22:19:21.125Z,-2.75
2022-12-14T22:22:13.990Z,-2.74
2022-12-14T22:25:01.839Z,-2.75
2022-12-14T22:27:51.196Z,-2.74
2022-12-14T22:30:42.299Z,-2.73
2022-12-14T22:33:31.531Z,-2.74
2022-12-14T22:36:20.329Z,-2.72
2022-12-14T22:39:08.319Z,-2.74
2022-12-14T22:41:56.551Z,-2.75
2022-12-14T22:44:45.964Z,-2.76
2022-12-14T22:47:34.662Z,-2.77
2022-12-14T22:50:22.527Z,-2.77
2022-12-14T22:53:10.596Z,-2.77
2022-12-14T22:56:02.408Z,-2.77
2022-12-14T22:58:52.856Z,-2.76
2022-12-14T23:01:42.942Z,-2.76
2022-12-14T23:04:38.569Z,-2.75
2022-12-14T23:07:26.574Z,-2.77
2022-12-14T23:10:31.866Z,-2.77
2022-12-14T23:13:40.485Z,-2.77
2022-12-14T23:16:45.659Z,-2.77
2022-12-14T23:19:58.724Z,-2.78
2022-12-14T23:23:08.227Z,-2.82
2022-12-14T23:26:13.941Z,-2.82
2022-12-14T23:29:19.546Z,-2.82
2022-12-14T23:32:24.572Z,-2.82
2022-12-14T23:35:34.182Z,-2.81
2022-12-14T23:38:39.323Z,-2.82
2022-12-14T23:41:44.439Z,-2.83
2022-12-14T23:44:49.862Z,-2.84
2022-12-14T23:47:55.054Z,-2.86
2022-12-14T23:51:02.082Z,-2.89
2022-12-14T23:54:07.155Z,-2.90
2022-12-14T23:57:12.354Z,-2.94
